Kylertown, PA (16847)

12:30 PM EST on February 09, 2016 (GMT -0500)
Winburne | | Change Station
CLOSE
Current Station
Personal Weather Station
Location: Winburne, PA
Elevation: 1457 ft
Nearby Weather Stations

Elev 1457 ft 40.96 °N, 78.14 °W | Updated 13 minutes ago

Snow
Snow
35.8 °F
Feels Like 36 °F
N
1.1
Wind Variable Wind from SE

Today
High -- | Low -- °F
--% Chance of Precip.
Yesterday
High -- | Low -- °F
Precip. -- in
Pressure 29.49 in
Visibility 1.8 miles
Clouds Scattered Clouds 1000 ft
Mostly Cloudy 2600 ft
Overcast 4300 ft
Windchill 36 °F
Dew Point 32 °F
Humidity 86%
Rainfall 0.02 in
Snow Depth Not available.
7:15 AM 5:39 PM
New Moon, 2% visible
SPECI KFIG 091722Z AUTO 20006KT 1 3/4SM -SN SCT010 BKN026 OVC043 01/M02 A2949 RMK AO2 VIS 1V5 P0000 T00111017
Pressure 29.49 in
Visibility 1.8 miles
Clouds Scattered Clouds 1000 ft
Mostly Cloudy 2600 ft
Overcast 4300 ft
Windchill 36 °F
Dew Point 32 °F
Humidity 86%
Rainfall 0.02 in
Snow Depth Not available.
7:15 AM 5:39 PM
New Moon, 2% visible
SPECI KFIG 091722Z AUTO 20006KT 1 3/4SM -SN SCT010 BKN026 OVC043 01/M02 A2949 RMK AO2 VIS 1V5 P0000 T00111017

10-Day Weather Forecast

Almanac

Astronomy

Feb. 09, 2016 Rise Set
Actual Time
Civil Twilight
Nautical Twilight
Astronomical Twilight
Moon
Length of Visible Light
Length of Day
Tomorrow will be .
, % of the Moon is Illuminated

Today's Extremes

State Highs State Lows

Community

WunderPhotos

Upload Photos

1,891,637 photos uploaded!

WunderBlog® & News

Nearby

Air Quality

  Air Quality AQ Index Pollutant
Not available.

Snow Depth

Station Depth Elevation

Earthquake Activity

City Distance Mag. Time & Date
Minimum magnitude displayed is 2.5.

Coastal Water Temperatures

Place Temperature

Stations

Nearby Weather Stations

Station Location Temp. Windchill Dew Point Humidity Wind Precip. Elev Updated Type
                   

Watches & Warnings

There are currently no watches in effect.